Aérodrome :
LOGIN :

S'inscrire | Disclaimer

   EN    FR    IT 

 










Légende :    VFR   VFR Marginal   IFR   IFR Intensif   IFR Très Intensif
Visi : 
Plafond : 
>= 8 km
>= 3000ft
5 à 8 km
1000 à 3000 ft
1500m à 5 km
500 à 1000 ft
800 à 1500m
200 à 500 ft
< 800m
< 200 ft
Symboles :   Orages  Brouillard  Fortes neiges  Fortes précipitations  Vent > 20 kt
SIGMETs :   Divers  Orages  Givrage  Turbulence  Onde Orograph.  Cendres Volcan.







- Altitude de l'aérodrome : 1411 ft
- Code IATA : GVA


LSGG - Genève Cointrin

DERNIER METAR :
  • 190720Z VRB02KT CAVOK 23/14 Q1017 NOSIG

METARs EXPIRÉS :
  • 190650Z 07004KT CAVOK 22/15 Q1017 NOSIG
  • 190620Z 05004KT 020V100 CAVOK 22/15 Q1017 NOSIG
  • 190550Z 01004KT CAVOK 20/14 Q1017 NOSIG
  • 190520Z VRB01KT CAVOK 19/14 Q1017 NOSIG
  • 190450Z VRB01KT CAVOK 17/13 Q1017 NOSIG

TAF TAF LSGG
Valide du 19 à 06h jusqu'au 20 à 12h UTC


190525Z 1906/2012 VRB03KT CAVOK TX31/1915Z TN20/1906Z TN18/2004Z
BECMG 1907/1910 05007KT 9999 FEW050
BECMG 1918/1921 VRB03KT CAVOK
BECMG 2007/2009 9999 FEW040 SCT120
ATIS : +41 22 417 40 81
Pas de NOTAMs connus pour ce terrain.



MET'MAP, la Météo Aéronautique d'un coup d'oeil ! - Copyright ORBIFLY Décembre 2007 - Disclaimer

ORBIFLY MET'MAP TEAM :

Programmation & Développement : Alexandra Zaïnal
Conception & Développement : Baudouin d'Aumeries
Co-Programmation & Développement : Marc-Olivier Méhu
Soutien technique & logistique : Manuel Goepfert

Contact : metmap@orbifly.com




SOURCES & CREDITS :

   NOAA